createdAt,value
2023-04-27T00:05:24.431Z,0.20
2023-04-27T00:08:25.947Z,0.28
2023-04-27T00:14:28.751Z,0.20
2023-04-27T00:17:31.484Z,0.30
2023-04-27T00:20:33.588Z,0.30
2023-04-27T00:23:40.576Z,0.20
2023-04-27T00:26:42.040Z,0.20
2023-04-27T00:32:45.583Z,0.30
2023-04-27T00:35:47.050Z,0.30
2023-04-27T00:38:48.976Z,0.20
2023-04-27T00:44:51.725Z,0.30
2023-04-27T00:50:55.352Z,0.28
2023-04-27T00:53:57.577Z,0.20
2023-04-27T00:56:59.009Z,0.10
2023-04-27T01:03:09.799Z,0.30
2023-04-27T01:06:11.332Z,0.28
2023-04-27T01:12:14.724Z,0.28
2023-04-27T01:15:16.768Z,0.20
2023-04-27T01:21:20.597Z,0.30
2023-04-27T01:24:22.619Z,0.38
2023-04-27T01:27:24.718Z,0.20
2023-04-27T01:30:27.748Z,0.20
2023-04-27T01:33:29.166Z,0.20
2023-04-27T01:39:33.864Z,0.10
2023-04-27T01:42:35.369Z,0.30
2023-04-27T01:48:40.248Z,0.20
2023-04-27T01:51:41.743Z,0.20
2023-04-27T01:54:44.524Z,0.30
2023-04-27T01:57:46.416Z,0.20
2023-04-27T02:00:47.895Z,0.30
2023-04-27T02:06:54.099Z,0.40
2023-04-27T02:09:56.078Z,0.30
2023-04-27T02:12:57.726Z,0.30
2023-04-27T02:16:06.993Z,0.25
2023-04-27T02:19:08.607Z,0.20
2023-04-27T02:22:09.974Z,0.30
2023-04-27T02:28:17.176Z,0.30
2023-04-27T02:31:21.722Z,0.20
2023-04-27T02:34:23.203Z,0.30
2023-04-27T02:40:27.817Z,0.30
2023-04-27T02:43:29.265Z,0.30
2023-04-27T02:49:32.138Z,0.30
2023-04-27T02:52:34.634Z,0.30
2023-04-27T02:58:40.858Z,0.30
2023-04-27T03:01:42.541Z,0.30
2023-04-27T03:04:44.380Z,0.35
2023-04-27T03:07:45.916Z,0.30
2023-04-27T03:10:47.862Z,0.30
2023-04-27T03:13:49.243Z,0.30
2023-04-27T03:19:52.194Z,0.30
2023-04-27T03:22:53.628Z,0.20
2023-04-27T03:28:58.086Z,0.25
2023-04-27T03:32:03.724Z,0.20
2023-04-27T03:35:06.305Z,0.10
2023-04-27T03:38:07.674Z,0.20
2023-04-27T03:41:11.144Z,0.10
2023-04-27T03:44:12.514Z,0.17
2023-04-27T03:50:15.898Z,0.10
2023-04-27T03:53:17.325Z,0.10
2023-04-27T03:59:20.747Z,0.10
2023-04-27T04:02:24.471Z,0.20
2023-04-27T04:05:26.068Z,0.10
2023-04-27T04:11:29.654Z,0.20
2023-04-27T04:14:33.556Z,0.30
2023-04-27T04:17:35.376Z,0.20
2023-04-27T04:20:37.226Z,0.30
2023-04-27T04:23:40.240Z,0.22
2023-04-27T04:26:42.836Z,0.20
2023-04-27T04:29:44.324Z,0.20
2023-04-27T04:35:47.182Z,0.10
2023-04-27T04:41:51.732Z,0.20
2023-04-27T04:44:53.441Z,0.20
2023-04-27T04:47:54.917Z,0.10
2023-04-27T04:50:56.696Z,0.10
2023-04-27T04:53:59.019Z,0.10
2023-04-27T04:57:02.684Z,0.20
2023-04-27T05:00:10.319Z,0.10
2023-04-27T05:03:11.850Z,0.10
2023-04-27T05:06:13.356Z,0.10
2023-04-27T05:09:18.496Z,0.10
2023-04-27T05:12:20.453Z,0.17
2023-04-27T05:15:21.842Z,0.20
2023-04-27T05:21:24.694Z,0.17
2023-04-27T05:27:30.672Z,0.20
2023-04-27T05:30:32.181Z,0.30
2023-04-27T05:36:35.192Z,0.17
2023-04-27T05:39:36.698Z,0.25
2023-04-27T05:45:40.949Z,0.25
2023-04-27T05:48:42.523Z,0.20
2023-04-27T05:51:44.106Z,0.20
2023-04-27T05:54:46.707Z,0.10
2023-04-27T05:57:57.190Z,0.10
2023-04-27T06:01:06.486Z,0.20
2023-04-27T06:04:08.036Z,0.10
2023-04-27T06:07:10.449Z,0.28
2023-04-27T06:10:11.998Z,0.17
2023-04-27T06:16:15.514Z,0.20
2023-04-27T06:19:16.953Z,0.20
2023-04-27T06:25:23.216Z,0.15
2023-04-27T06:28:26.497Z,0.10
2023-04-27T06:31:28.071Z,0.20
2023-04-27T06:34:29.463Z,0.20
2023-04-27T06:37:31.618Z,0.20
2023-04-27T06:40:32.984Z,0.10
2023-04-27T06:43:34.953Z,0.10
2023-04-27T06:46:36.395Z,0.20
2023-04-27T06:52:39.470Z,0.10
2023-04-27T06:55:43.953Z,0.20
2023-04-27T06:58:47.013Z,0.20
2023-04-27T07:01:48.583Z,0.50
2023-04-27T07:04:50.555Z,0.30
2023-04-27T07:07:53.429Z,0.20
2023-04-27T07:10:55.587Z,0.10
2023-04-27T07:13:57.570Z,0.20
2023-04-27T07:16:59.142Z,0.28
2023-04-27T07:37:51.371Z,0.32
2023-04-27T07:40:53.784Z,0.13
2023-04-27T07:43:57.117Z,0.30
2023-04-27T07:47:02.785Z,0.30
2023-04-27T07:50:06.458Z,0.30
2023-04-27T07:53:08.389Z,0.30
2023-04-27T07:56:09.856Z,0.20
2023-04-27T08:02:19.755Z,0.30
2023-04-27T08:05:22.558Z,0.30
2023-04-27T08:08:25.502Z,0.30
2023-04-27T08:11:26.953Z,0.30
2023-04-27T08:14:28.422Z,0.40
2023-04-27T08:20:31.267Z,0.50
2023-04-27T08:23:33.582Z,0.40
2023-04-27T08:26:35.014Z,0.28
2023-04-27T08:32:38.087Z,0.30
2023-04-27T08:35:39.717Z,0.32
2023-04-27T08:38:43.026Z,0.45
2023-04-27T08:41:44.732Z,0.50
2023-04-27T08:44:49.190Z,0.55
2023-04-27T08:47:51.122Z,0.47
2023-04-27T08:50:53.349Z,0.43
2023-04-27T08:53:59.622Z,0.45
2023-04-27T08:57:02.423Z,0.40
2023-04-27T09:00:11.538Z,0.30
2023-04-27T09:03:23.070Z,0.32
2023-04-27T09:06:34.103Z,0.40
2023-04-27T09:09:36.350Z,0.30
2023-04-27T09:12:37.783Z,0.40
2023-04-27T09:15:45.700Z,0.30
2023-04-27T09:18:48.884Z,0.30
2023-04-27T09:21:52.944Z,0.30
2023-04-27T09:24:55.020Z,0.40
2023-04-27T09:27:57.645Z,0.30
2023-04-27T09:31:00.945Z,0.45
2023-04-27T09:34:03.223Z,0.30
2023-04-27T09:37:05.593Z,0.30
2023-04-27T09:40:08.948Z,0.30
2023-04-27T09:43:10.981Z,0.28
2023-04-27T09:46:13.136Z,0.30
2023-04-27T09:49:17.255Z,0.40
2023-04-27T09:52:18.654Z,0.32
2023-04-27T09:58:49.313Z,0.30
2023-04-27T10:01:56.332Z,0.30
2023-04-27T10:05:16.331Z,0.30
2023-04-27T10:08:18.059Z,0.40
2023-04-27T10:11:20.674Z,0.30
2023-04-27T10:14:24.209Z,0.40
2023-04-27T10:17:30.001Z,0.32
2023-04-27T10:20:32.745Z,0.30
2023-04-27T10:23:44.917Z,0.50
2023-04-27T10:26:47.594Z,0.35
2023-04-27T10:29:49.943Z,0.30
2023-04-27T10:32:56.708Z,0.30
2023-04-27T10:35:59.543Z,0.30
2023-04-27T10:39:00.911Z,0.20
2023-04-27T10:45:05.411Z,0.30
2023-04-27T10:48:07.550Z,0.30
2023-04-27T10:51:09.289Z,0.30
2023-04-27T10:54:11.820Z,0.30
2023-04-27T10:57:13.834Z,0.22
2023-04-27T11:00:18.179Z,0.30
2023-04-27T11:03:21.932Z,0.30
2023-04-27T11:06:23.722Z,0.20
2023-04-27T11:09:27.183Z,0.20
2023-04-27T11:12:31.560Z,0.38
2023-04-27T11:15:46.391Z,0.20
2023-04-27T11:18:47.956Z,0.20
2023-04-27T11:24:51.974Z,0.20
2023-04-27T11:27:53.997Z,0.20
2023-04-27T11:30:56.367Z,0.20
2023-04-27T11:33:57.898Z,0.20
2023-04-27T11:37:10.758Z,0.20
2023-04-27T11:40:21.529Z,0.20
2023-04-27T11:43:26.281Z,0.20
2023-04-27T11:46:30.190Z,0.22
2023-04-27T11:49:31.629Z,0.20
2023-04-27T11:52:34.336Z,0.10
2023-04-27T11:55:36.711Z,0.10
2023-04-27T11:58:39.313Z,0.20
2023-04-27T12:01:40.830Z,0.20
2023-04-27T12:04:42.537Z,0.10
2023-04-27T12:07:44.066Z,0.20
2023-04-27T12:13:48.087Z,0.15
2023-04-27T12:16:49.504Z,0.30
2023-04-27T12:22:53.456Z,0.20
2023-04-27T12:25:54.827Z,0.30
2023-04-27T12:31:59.108Z,0.30
2023-04-27T12:35:00.783Z,0.22
2023-04-27T12:38:03.119Z,0.40
2023-04-27T12:41:04.871Z,0.30
2023-04-27T12:44:07.019Z,0.20
2023-04-27T12:47:08.943Z,0.15
2023-04-27T12:50:10.461Z,0.20
2023-04-27T12:53:11.875Z,0.15
2023-04-27T12:59:17.466Z,0.10
2023-04-27T13:02:18.957Z,0.20
2023-04-27T13:05:21.235Z,0.22
2023-04-27T13:08:22.653Z,0.20
2023-04-27T13:14:27.860Z,0.15
2023-04-27T13:17:29.852Z,0.30
2023-04-27T13:20:32.119Z,0.40
2023-04-27T13:23:33.568Z,0.77
2023-04-27T13:26:35.208Z,0.40
2023-04-27T13:29:37.443Z,0.45
2023-04-27T13:32:38.935Z,0.30
2023-04-27T13:35:40.562Z,0.38
2023-04-27T13:38:41.983Z,0.40
2023-04-27T13:44:45.543Z,0.20
2023-04-27T13:47:47.037Z,0.22
2023-04-27T13:50:48.548Z,0.20
2023-04-27T13:56:51.371Z,0.20
2023-04-27T14:02:56.967Z,0.63
2023-04-27T14:05:58.788Z,0.47
2023-04-27T14:12:01.977Z,0.40
2023-04-27T14:15:08.977Z,0.57
2023-04-27T14:18:10.769Z,0.30
2023-04-27T14:21:12.287Z,0.20
2023-04-27T14:24:15.067Z,0.20
2023-04-27T14:27:16.487Z,0.15
2023-04-27T14:33:19.974Z,0.20
2023-04-27T14:39:22.605Z,0.20
2023-04-27T14:45:29.221Z,0.25
2023-04-27T14:48:36.617Z,0.20
2023-04-27T14:51:38.004Z,0.10
2023-04-27T14:57:42.203Z,0.20
2023-04-27T15:03:45.821Z,0.10
2023-04-27T15:06:47.424Z,0.20
2023-04-27T15:09:50.531Z,0.25
2023-04-27T15:12:51.939Z,0.17
2023-04-27T15:18:56.862Z,0.40
2023-04-27T15:25:00.369Z,0.30
2023-04-27T15:28:02.807Z,0.20
2023-04-27T15:31:04.973Z,0.20
2023-04-27T15:34:06.443Z,0.20
2023-04-27T15:43:11.127Z,0.40
2023-04-27T15:46:14.858Z,0.40
2023-04-27T15:49:16.601Z,0.40
2023-04-27T15:52:18.264Z,0.38
2023-04-27T15:55:20.439Z,0.40
2023-04-27T16:12:58.202Z,0.20
2023-04-27T16:16:02.083Z,0.20
2023-04-27T16:19:15.291Z,0.20
2023-04-27T16:22:37.928Z,0.22
2023-04-27T16:25:44.785Z,0.20
2023-04-27T16:28:46.528Z,0.20
2023-04-27T16:31:50.435Z,0.22
2023-04-27T16:34:52.093Z,0.28
2023-04-27T16:37:53.962Z,0.22
2023-04-27T16:40:57.886Z,0.32
2023-04-27T16:44:03.059Z,0.20
2023-04-27T16:47:05.372Z,0.20
2023-04-27T16:50:07.429Z,0.30
2023-04-27T16:53:12.799Z,0.20
2023-04-27T16:56:17.617Z,0.20
2023-04-27T16:59:19.288Z,0.30
2023-04-27T17:02:25.216Z,0.38
2023-04-27T17:05:27.858Z,0.30
2023-04-27T17:08:31.600Z,0.25
2023-04-27T17:11:36.440Z,0.20
2023-04-27T17:14:38.784Z,0.30
2023-04-27T17:17:40.880Z,0.20
2023-04-27T17:20:42.859Z,0.20
2023-04-27T17:23:45.837Z,0.30
2023-04-27T17:26:48.344Z,0.30
2023-04-27T17:29:51.838Z,0.30
2023-04-27T17:32:58.656Z,0.30
2023-04-27T17:36:01.657Z,0.30
2023-04-27T17:39:04.091Z,0.22
2023-04-27T17:42:11.210Z,0.20
2023-04-27T17:45:14.924Z,0.28
2023-04-27T17:48:17.761Z,0.32
2023-04-27T17:51:21.810Z,0.25
2023-04-27T17:54:28.775Z,0.20
2023-04-27T17:57:34.445Z,0.30
2023-04-27T18:00:38.371Z,0.30
2023-04-27T18:03:42.478Z,0.55
2023-04-27T18:06:44.635Z,0.20
2023-04-27T18:09:46.355Z,0.20
2023-04-27T18:12:49.730Z,0.30
2023-04-27T18:15:51.789Z,0.20
2023-04-27T18:18:54.152Z,0.20
2023-04-27T18:22:00.732Z,0.30
2023-04-27T18:25:02.998Z,0.30
2023-04-27T18:28:06.010Z,0.20
2023-04-27T18:31:14.272Z,0.30
2023-04-27T18:34:16.452Z,0.32
2023-04-27T18:37:18.647Z,0.30
2023-04-27T18:40:21.859Z,0.30
2023-04-27T18:43:25.202Z,0.30
2023-04-27T18:46:28.476Z,0.30
2023-04-27T18:49:30.390Z,0.40
2023-04-27T18:52:32.469Z,0.40
2023-04-27T18:55:33.975Z,0.30
2023-04-27T18:58:36.715Z,0.30
2023-04-27T19:01:39.829Z,0.20
2023-04-27T19:04:45.461Z,0.30
2023-04-27T19:07:55.009Z,0.30
2023-04-27T19:11:00.406Z,0.20
2023-04-27T19:14:03.222Z,0.30
2023-04-27T19:17:05.024Z,0.20
2023-04-27T19:20:08.344Z,0.28
2023-04-27T19:23:11.753Z,0.20
2023-04-27T19:26:14.157Z,0.30
2023-04-27T19:29:17.344Z,0.28
2023-04-27T19:32:19.842Z,0.22
2023-04-27T19:35:22.967Z,0.28
2023-04-27T19:38:24.917Z,0.30
2023-04-27T19:41:26.758Z,0.30
2023-04-27T19:44:28.974Z,0.30
2023-04-27T19:47:33.286Z,0.30
2023-04-27T19:50:37.707Z,0.30
2023-04-27T19:53:39.416Z,0.20
2023-04-27T19:56:40.922Z,0.40
2023-04-27T19:59:43.109Z,0.30
2023-04-27T20:02:44.989Z,0.25
2023-04-27T20:05:48.437Z,0.20
2023-04-27T20:08:50.464Z,0.40
2023-04-27T20:11:54.639Z,0.20
2023-04-27T20:14:57.224Z,0.30
2023-04-27T20:18:05.661Z,0.30
2023-04-27T20:21:07.800Z,0.30
2023-04-27T20:24:09.652Z,0.20
2023-04-27T20:27:11.209Z,0.30
2023-04-27T20:30:16.743Z,0.30
2023-04-27T20:33:21.899Z,0.30
2023-04-27T20:36:24.461Z,0.32
2023-04-27T20:39:27.978Z,0.32
2023-04-27T20:42:29.833Z,0.40
2023-04-27T20:45:33.498Z,0.50
2023-04-27T20:48:38.028Z,0.40
2023-04-27T20:51:40.558Z,0.40
2023-04-27T20:54:46.649Z,0.40
2023-04-27T20:57:48.791Z,0.40
2023-04-27T21:00:53.300Z,0.32
2023-04-27T21:03:55.386Z,0.45
2023-04-27T21:07:03.635Z,0.45
2023-04-27T21:10:07.660Z,0.35
2023-04-27T21:13:11.135Z,0.40
2023-04-27T21:16:14.269Z,0.40
2023-04-27T21:19:18.262Z,0.50
2023-04-27T21:22:23.754Z,0.40
2023-04-27T21:25:25.485Z,0.40
2023-04-27T21:28:27.454Z,0.40
2023-04-27T21:31:30.302Z,0.30
2023-04-27T21:34:32.311Z,0.35
2023-04-27T21:37:38.486Z,0.30
2023-04-27T21:40:44.307Z,0.47
2023-04-27T21:43:48.485Z,0.50
2023-04-27T21:47:01.413Z,0.43
2023-04-27T21:50:04.838Z,0.52
2023-04-27T21:53:09.250Z,0.30
2023-04-27T21:56:13.285Z,0.50
2023-04-27T21:59:16.387Z,0.45
2023-04-27T22:02:22.170Z,0.50
2023-04-27T22:05:28.582Z,0.40
2023-04-27T22:08:30.326Z,0.52
2023-04-27T22:11:31.923Z,0.40
2023-04-27T22:14:36.317Z,0.52
2023-04-27T22:17:39.330Z,0.50
2023-04-27T23:02:58.670Z,0.45
2023-04-27T23:06:07.237Z,0.50
2023-04-27T23:09:14.516Z,0.40
2023-04-27T23:12:16.660Z,0.30
2023-04-27T23:15:18.476Z,0.50
2023-04-27T23:18:22.083Z,0.50
2023-04-27T23:21:26.067Z,0.40
2023-04-27T23:24:27.716Z,0.40
2023-04-27T23:27:29.422Z,0.50
2023-04-27T23:30:33.851Z,0.60
2023-04-27T23:33:37.104Z,0.40
2023-04-27T23:36:42.709Z,0.55
2023-04-27T23:39:44.327Z,0.45
2023-04-27T23:42:46.074Z,0.40
2023-04-27T23:45:49.749Z,0.40
2023-04-27T23:48:51.432Z,0.30
2023-04-27T23:51:56.511Z,0.60
2023-04-27T23:54:58.966Z,0.47
